Time;durP1;ratioP1;P1;durP2;ratioP2;P2;SDS_P1;SDS_P2;PMS_P1;PMS_P2;Temp;Humidity;BMP_temperature;BMP_pressure;BME280_temperature;BME280_humidity;BME280_pressure;Samples;Min_cycle;Max_cycle;Signal;HPM_P1;HPM_P2
2022/11/09 00:02:04;;;;;;;12.48;2.42;;;;;;;12.35;100.00;100277.78;5050484;28;20032;-35
2022/11/09 00:04:29;;;;;;;18.00;2.20;;;;;;;12.34;100.00;100268.84;5041314;28;20025;-36
2022/11/09 00:06:54;;;;;;;11.95;2.50;;;;;;;12.38;100.00;100275.50;5048611;28;20283;-37
2022/11/09 00:09:20;;;;;;;15.60;2.80;;;;;;;12.37;100.00;100276.53;5050835;28;20466;-36
2022/11/09 00:11:46;;;;;;;10.05;2.33;;;;;;;12.34;100.00;100270.72;5042838;28;20526;-37
2022/11/09 00:14:15;;;;;;;15.52;2.63;;;;;;;12.32;100.00;100273.63;5048977;28;20486;-38
2022/11/09 00:16:41;;;;;;;19.73;2.53;;;;;;;12.26;100.00;100274.47;5039293;28;20045;-37
2022/11/09 00:19:06;;;;;;;11.60;2.15;;;;;;;12.26;100.00;100274.47;5035528;28;20079;-38
2022/11/09 00:21:31;;;;;;;16.85;2.38;;;;;;;12.25;100.00;100278.19;5037742;28;20025;-37
2022/11/09 00:23:57;;;;;;;15.23;2.45;;;;;;;12.23;100.00;100272.19;5031936;28;21995;-38
2022/11/09 00:26:22;;;;;;;21.15;3.08;;;;;;;12.25;100.00;100273.63;5052637;28;20032;-38
2022/11/09 00:28:48;;;;;;;16.67;2.60;;;;;;;12.26;100.00;100271.75;5049576;28;20025;-37
2022/11/09 00:31:18;;;;;;;17.73;3.22;;;;;;;12.24;100.00;100298.09;5050363;28;20040;-37
2022/11/09 00:33:49;;;;;;;20.80;3.40;;;;;;;12.26;100.00;100277.16;5049756;28;20025;-37
2022/11/09 00:36:14;;;;;;;15.48;2.40;;;;;;;12.25;100.00;100262.00;5034123;28;20036;-37
2022/11/09 00:38:39;;;;;;;10.73;2.47;;;;;;;12.25;100.00;100267.41;5047966;28;20045;-37
2022/11/09 00:41:07;;;;;;;22.13;2.83;;;;;;;12.20;100.00;100278.00;5030542;28;20031;-37
2022/11/09 00:43:32;;;;;;;13.05;2.13;;;;;;;12.13;100.00;100277.97;5035896;28;20567;-37
2022/11/09 00:45:58;;;;;;;18.67;2.70;;;;;;;12.09;100.00;100268.66;5047513;28;20029;-38
2022/11/09 00:48:23;;;;;;;15.05;2.58;;;;;;;12.08;100.00;100273.22;5046936;28;20399;-37
2022/11/09 00:50:54;;;;;;;9.77;1.80;;;;;;;12.05;100.00;100262.81;5052555;28;20037;-37
2022/11/09 00:53:21;;;;;;;17.10;2.35;;;;;;;12.05;100.00;100265.50;5049574;28;20061;-38
2022/11/09 00:55:53;;;;;;;16.65;2.33;;;;;;;12.04;100.00;100265.72;5040579;28;20067;-39
2022/11/09 00:58:19;;;;;;;15.07;2.63;;;;;;;12.06;100.00;100258.28;5047763;28;20025;-37
2022/11/09 01:00:44;;;;;;;17.98;2.33;;;;;;;12.08;100.00;100256.19;5050390;28;20054;-37
2022/11/09 01:03:09;;;;;;;15.10;2.13;;;;;;;12.08;100.00;100261.56;5040807;28;20144;-38
2022/11/09 01:05:38;;;;;;;19.95;2.03;;;;;;;12.02;100.00;100268.63;5045101;28;20491;-40
2022/11/09 01:08:04;;;;;;;22.13;2.38;;;;;;;12.04;100.00;100271.94;5040363;28;20103;-38
2022/11/09 01:10:29;;;;;;;11.50;2.30;;;;;;;12.01;100.00;100272.38;5035361;28;20123;-38
2022/11/09 01:12:54;;;;;;;19.73;2.30;;;;;;;12.00;100.00;100270.69;5052573;28;20124;-38
2022/11/09 01:15:20;;;;;;;19.67;2.55;;;;;;;12.02;100.00;100276.72;5040322;28;20044;-36
2022/11/09 01:17:46;;;;;;;13.90;1.98;;;;;;;11.98;100.00;100272.78;5028741;28;20029;-36
2022/11/09 01:20:12;;;;;;;18.15;2.05;;;;;;;11.96;100.00;100277.53;5031030;28;20026;-36
2022/11/09 01:22:37;;;;;;;19.90;2.42;;;;;;;11.98;100.00;100272.78;5052196;28;20036;-37
2022/11/09 01:25:06;;;;;;;16.13;2.20;;;;;;;12.03;100.00;100273.00;5041885;28;20033;-39
2022/11/09 01:27:31;;;;;;;15.60;2.60;;;;;;;12.00;100.00;100281.47;5037944;28;20029;-38
2022/11/09 01:29:57;;;;;;;15.32;2.65;;;;;;;12.04;100.00;100271.94;5028632;28;20441;-37
2022/11/09 01:32:22;;;;;;;19.27;2.65;;;;;;;12.08;100.00;100278.63;5045067;28;20029;-39
2022/11/09 01:34:47;;;;;;;22.02;2.75;;;;;;;12.05;100.00;100281.69;5049424;28;20364;-36
2022/11/09 01:37:13;;;;;;;12.65;2.15;;;;;;;12.05;100.00;100284.38;5040534;28;20025;-35
2022/11/09 01:39:38;;;;;;;18.10;2.10;;;;;;;12.08;100.00;100273.22;5044966;28;20044;-38
2022/11/09 01:42:03;;;;;;;18.83;2.30;;;;;;;12.11;100.00;100298.09;5050461;28;20109;-36
2022/11/09 01:44:29;;;;;;;24.83;2.55;;;;;;;12.10;100.00;100291.88;5048436;28;20025;-36
2022/11/09 01:46:54;;;;;;;15.63;2.30;;;;;;;12.14;100.00;100292.28;5046435;28;20044;-35
2022/11/09 01:49:22;;;;;;;20.83;2.95;;;;;;;12.11;100.00;100284.59;5039349;28;20025;-35
2022/11/09 01:51:54;;;;;;;14.00;2.28;;;;;;;12.11;100.00;100290.81;5041434;28;20033;-36
2022/11/09 01:54:25;;;;;;;16.38;1.80;;;;;;;12.14;100.00;100284.19;5040987;28;20120;-36
2022/11/09 01:56:54;;;;;;;19.10;2.05;;;;;;;12.17;100.00;100297.28;5052063;28;20441;-36
2022/11/09 01:59:26;;;;;;;23.50;3.08;;;;;;;12.19;100.00;100296.06;5049348;28;20040;-37
2022/11/09 02:01:52;;;;;;;23.90;2.63;;;;;;;12.17;100.00;100297.28;5050097;28;20065;-36
2022/11/09 02:04:28;;;;;;;17.83;2.40;;;;;;;12.13;100.00;100291.47;5047850;28;20467;-36
2022/11/09 02:06:56;;;;;;;18.85;2.42;;;;;;;12.12;100.00;100287.09;5032133;28;20196;-36
2022/11/09 02:09:40;;;;;;;16.92;2.55;;;;;;;12.11;100.00;100295.41;5031190;28;20033;-38
2022/11/09 02:12:06;;;;;;;19.98;2.80;;;;;;;12.14;100.00;100282.34;5042890;28;20103;-37
2022/11/09 02:14:32;;;;;;;19.00;2.55;;;;;;;12.15;100.00;100286.69;5040674;28;20492;-36
2022/11/09 02:16:58;;;;;;;17.45;2.83;;;;;;;12.16;100.00;100274.03;5043575;28;20425;-37
2022/11/09 02:19:23;;;;;;;19.02;2.67;;;;;;;12.14;100.00;100271.56;5042288;28;20033;-37
2022/11/09 02:21:49;;;;;;;20.70;2.60;;;;;;;12.15;100.00;100280.47;5051425;28;20021;-37
2022/11/09 02:24:14;;;;;;;21.10;2.83;;;;;;;12.10;100.00;100280.25;5044980;28;20068;-37
2022/11/09 02:26:46;;;;;;;20.55;2.67;;;;;;;12.08;100.00;100289.41;5034346;28;20043;-37
2022/11/09 02:29:15;;;;;;;18.80;2.38;;;;;;;12.06;100.00;100280.69;5033256;28;20037;-36
2022/11/09 02:31:44;;;;;;;27.52;3.20;;;;;;;12.03;100.00;100286.47;5048002;28;20037;-36
2022/11/09 02:34:15;;;;;;;26.38;2.80;;;;;;;12.06;100.00;100291.47;5040331;28;20035;-36
2022/11/09 02:36:42;;;;;;;15.32;2.78;;;;;;;12.11;100.00;100285.44;5030766;28;20037;-37
2022/11/09 02:39:08;;;;;;;18.20;2.53;;;;;;;12.14;100.00;100290.44;5039479;28;20045;-36
2022/11/09 02:41:37;;;;;;;10.80;1.88;;;;;;;12.13;100.00;100287.94;5039603;28;20116;-37
2022/11/09 02:44:02;;;;;;;15.63;3.05;;;;;;;12.12;100.00;100283.59;5030558;28;20052;-37
2022/11/09 02:46:33;;;;;;;13.30;2.58;;;;;;;12.11;100.00;100292.69;5047584;28;20124;-39
2022/11/09 02:48:59;;;;;;;12.65;1.95;;;;;;;12.06;100.00;100286.06;5049270;28;20021;-37
2022/11/09 02:51:25;;;;;;;13.95;1.90;;;;;;;12.04;100.00;100295.41;5050391;28;20108;-36
2022/11/09 02:53:50;;;;;;;14.45;2.50;;;;;;;12.06;100.00;100291.47;5042545;28;20124;-36
2022/11/09 02:56:15;;;;;;;17.10;2.30;;;;;;;11.98;100.00;100299.75;5033132;28;20056;-37
2022/11/09 02:58:41;;;;;;;25.77;2.92;;;;;;;11.92;100.00;100297.84;5036450;28;20039;-37
2022/11/09 03:01:06;;;;;;;20.70;2.92;;;;;;;11.88;100.00;100285.81;5048576;28;20055;-37
2022/11/09 03:03:31;;;;;;;15.23;2.55;;;;;;;11.78;100.00;100282.66;5048549;28;20060;-40
2022/11/09 03:05:57;;;;;;;17.75;2.50;;;;;;;11.67;100.00;100291.34;5037704;28;20090;-40
2022/11/09 03:08:22;;;;;;;15.57;2.58;;;;;;;11.60;100.00;100291.31;5045947;28;20087;-37
2022/11/09 03:10:47;;;;;;;18.20;2.95;;;;;;;11.52;100.00;100300.41;5037677;28;20030;-38
2022/11/09 03:13:13;;;;;;;18.70;2.78;;;;;;;11.49;100.00;100295.41;5036260;28;20179;-37
2022/11/09 03:15:39;;;;;;;18.48;3.03;;;;;;;11.47;100.00;100318.22;5033035;28;20026;-36
2022/11/09 03:18:04;;;;;;;16.70;1.85;;;;;;;11.48;100.00;100323.41;5046474;28;20021;-37
2022/11/09 03:20:30;;;;;;;15.57;2.47;;;;;;;11.49;100.00;100325.06;5028987;28;20072;-36
2022/11/09 03:22:58;;;;;;;13.90;2.22;;;;;;;11.55;100.00;100326.13;5030103;28;20033;-37
2022/11/09 03:25:24;;;;;;;25.38;3.60;;;;;;;11.56;100.00;100325.94;5033755;28;20032;-37
2022/11/09 03:27:55;;;;;;;11.30;2.05;;;;;;;11.57;100.00;100330.28;5043491;28;20017;-37
2022/11/09 03:30:21;;;;;;;15.70;3.03;;;;;;;11.54;100.00;100336.06;5038923;28;20029;-37
2022/11/09 03:32:46;;;;;;;19.20;2.55;;;;;;;11.50;100.00;100340.19;5047901;28;20025;-36
2022/11/09 03:35:11;;;;;;;17.17;2.17;;;;;;;11.49;100.00;100343.91;5040536;28;20025;-36
2022/11/09 03:37:37;;;;;;;19.90;2.63;;;;;;;11.49;100.00;100329.63;5045598;28;20079;-36
2022/11/09 03:40:02;;;;;;;15.35;2.42;;;;;;;11.49;100.00;100349.31;5044326;28;20056;-37
2022/11/09 03:42:27;;;;;;;10.70;1.85;;;;;;;11.53;100.00;100352.44;5034867;28;20051;-37
2022/11/09 03:44:54;;;;;;;20.50;2.97;;;;;;;11.52;100.00;100356.16;5035726;28;20030;-36
2022/11/09 03:47:19;;;;;;;15.65;2.17;;;;;;;11.52;100.00;100365.06;5032454;28;20429;-38
2022/11/09 03:49:45;;;;;;;17.13;2.65;;;;;;;11.52;100.00;100354.28;5042863;28;20033;-37
2022/11/09 03:52:10;;;;;;;19.55;2.85;;;;;;;11.52;100.00;100380.41;5049677;28;20020;-37
2022/11/09 03:54:35;;;;;;;20.35;2.22;;;;;;;11.55;100.00;100370.06;5033491;28;20025;-36
2022/11/09 03:57:01;;;;;;;22.10;3.05;;;;;;;11.57;100.00;100369.88;5041524;28;20116;-37
2022/11/09 03:59:26;;;;;;;13.45;2.53;;;;;;;11.59;100.00;100371.34;5027941;28;20022;-37
2022/11/09 04:01:51;;;;;;;19.38;2.80;;;;;;;11.60;100.00;100373.00;5043287;28;20037;-37
2022/11/09 04:04:17;;;;;;;11.05;2.22;;;;;;;11.62;100.00;100383.59;5047404;28;20029;-37
2022/11/09 04:06:42;;;;;;;16.52;2.13;;;;;;;11.53;100.00;100388.31;5040112;28;20530;-36
2022/11/09 04:09:09;;;;;;;13.55;2.20;;;;;;;11.43;100.00;100394.06;5034469;28;20437;-40
2022/11/09 04:11:34;;;;;;;16.55;2.38;;;;;;;11.31;100.00;100413.66;5047977;28;20045;-38
2022/11/09 04:13:59;;;;;;;10.52;2.67;;;;;;;11.24;100.00;100399.31;5050576;28;20474;-38
2022/11/09 04:16:25;;;;;;;15.68;2.53;;;;;;;11.18;100.00;100415.22;5042119;28;20497;-38
2022/11/09 04:18:50;;;;;;;17.02;2.63;;;;;;;11.14;100.00;100397.81;5040843;28;20037;-39
2022/11/09 04:21:15;;;;;;;18.48;2.85;;;;;;;11.09;100.00;100400.25;5028381;28;20126;-38
2022/11/09 04:23:41;;;;;;;22.08;3.13;;;;;;;11.04;100.00;100402.72;5030619;28;20479;-37
2022/11/09 04:26:06;;;;;;;13.75;2.33;;;;;;;10.99;100.00;100395.22;5035232;28;20044;-37
2022/11/09 04:28:31;;;;;;;17.50;2.65;;;;;;;10.99;100.00;100405.97;5038546;28;20025;-37
2022/11/09 04:31:00;;;;;;;18.58;2.88;;;;;;;10.98;100.00;100401.63;5030831;28;20100;-38
2022/11/09 04:33:26;;;;;;;15.00;2.88;;;;;;;10.96;100.00;100394.78;5041520;28;20037;-37
2022/11/09 04:35:51;;;;;;;9.93;1.73;;;;;;;10.95;100.00;100396.66;5037927;28;20538;-38
2022/11/09 04:38:17;;;;;;;18.08;2.25;;;;;;;10.96;100.00;100403.69;5036835;28;20025;-37
2022/11/09 04:40:42;;;;;;;18.17;2.35;;;;;;;10.98;100.00;100408.88;5045221;28;20351;-37
2022/11/09 04:43:11;;;;;;;21.02;2.47;;;;;;;10.97;100.00;100399.13;5049175;28;20233;-37
2022/11/09 04:45:36;;;;;;;18.23;2.45;;;;;;;10.97;100.00;100396.44;5046115;28;20041;-38
2022/11/09 04:48:04;;;;;;;19.30;2.40;;;;;;;10.96;100.00;100397.47;5034889;28;20048;-36
2022/11/09 04:50:30;;;;;;;16.05;2.40;;;;;;;10.95;100.00;100388.56;5031143;28;20033;-37
2022/11/09 04:53:09;;;;;;;12.82;2.45;;;;;;;10.94;100.00;100378.81;5046032;28;20509;-37
2022/11/09 04:55:35;;;;;;;14.65;2.47;;;;;;;10.91;100.00;100384.59;5045864;28;20041;-37
2022/11/09 04:58:00;;;;;;;18.20;1.88;;;;;;;10.89;100.00;100392.03;5045499;28;20209;-36
2022/11/09 05:00:26;;;;;;;12.07;1.90;;;;;;;10.88;100.00;100389.53;5034308;28;20033;-36
2022/11/09 05:02:51;;;;;;;15.07;2.45;;;;;;;10.86;100.00;100388.91;5048757;28;20033;-37
2022/11/09 05:05:17;;;;;;;17.30;2.53;;;;;;;10.84;100.00;100388.25;5047511;28;20120;-37
2022/11/09 05:07:42;;;;;;;22.63;2.33;;;;;;;10.85;100.00;100396.16;5036033;28;20033;-37
2022/11/09 05:10:08;;;;;;;9.10;2.20;;;;;;;10.86;100.00;100392.41;5052054;28;20066;-37
2022/11/09 05:12:33;;;;;;;17.63;2.25;;;;;;;10.86;100.00;100391.59;5053899;28;20076;-36
2022/11/09 05:14:59;;;;;;;13.50;2.33;;;;;;;10.84;100.00;100382.88;5037016;28;20269;-38
2022/11/09 05:17:24;;;;;;;25.80;2.72;;;;;;;10.83;100.00;100389.28;5042158;28;20407;-37
2022/11/09 05:19:49;;;;;;;21.38;2.90;;;;;;;10.81;100.00;100381.41;5043816;28;20475;-38
2022/11/09 05:24:58;;;;;;;22.13;2.47;;;;;;;10.80;100.00;100400.44;5034640;28;20040;-37
2022/11/09 05:27:24;;;;;;;15.73;2.60;;;;;;;10.78;100.00;100392.56;5040797;28;20108;-37
2022/11/09 05:29:49;;;;;;;17.50;2.92;;;;;;;10.76;100.00;100387.34;5044050;28;20087;-37
2022/11/09 05:32:14;;;;;;;23.08;2.85;;;;;;;10.77;100.00;100394.44;5046392;28;20056;-38
2022/11/09 05:34:40;;;;;;;15.57;2.85;;;;;;;10.75;100.00;100391.09;5042480;28;20156;-37
2022/11/09 05:37:05;;;;;;;18.77;2.10;;;;;;;10.73;100.00;100393.13;5040109;28;20068;-37
2022/11/09 05:39:30;;;;;;;16.88;2.13;;;;;;;10.70;100.00;100403.47;5040697;28;20691;-37
2022/11/09 05:41:56;;;;;;;21.58;2.65;;;;;;;10.70;100.00;100398.91;5045983;28;20486;-36
2022/11/09 05:44:21;;;;;;;19.02;2.10;;;;;;;10.69;100.00;100399.94;5044854;28;20055;-37
2022/11/09 05:46:46;;;;;;;20.80;2.42;;;;;;;10.65;100.00;100403.22;5045564;28;20033;-37
2022/11/09 05:49:12;;;;;;;17.05;2.13;;;;;;;10.64;100.00;100410.47;5041839;28;20030;-38
2022/11/09 05:51:37;;;;;;;19.95;2.22;;;;;;;10.62;100.00;100412.50;5040320;28;20040;-38
2022/11/09 05:54:02;;;;;;;18.27;2.50;;;;;;;10.63;100.00;100395.31;5043538;28;20037;-37
2022/11/09 05:56:28;;;;;;;20.33;2.28;;;;;;;10.65;100.00;100403.22;5045041;28;20077;-37
2022/11/09 05:58:56;;;;;;;20.58;2.40;;;;;;;10.64;100.00;100410.47;5042972;28;20036;-37
2022/11/09 06:01:22;;;;;;;18.65;2.10;;;;;;;10.63;100.00;100408.78;5039372;28;20043;-37
2022/11/09 06:03:47;;;;;;;23.33;2.50;;;;;;;10.62;100.00;100415.19;5032843;28;20100;-37
2022/11/09 06:06:13;;;;;;;17.52;2.13;;;;;;;10.63;100.00;100394.50;5030646;28;20031;-37
2022/11/09 06:08:39;;;;;;;20.42;2.70;;;;;;;10.62;100.00;100396.34;5029151;28;20029;-37
2022/11/09 06:11:06;;;;;;;14.10;2.20;;;;;;;10.62;100.00;100401.75;5036128;28;20048;-38
2022/11/09 06:13:32;;;;;;;21.58;2.70;;;;;;;10.66;100.00;100397.63;5040747;28;20052;-37
2022/11/09 06:15:59;;;;;;;23.08;2.60;;;;;;;10.67;100.00;100415.44;5030481;28;20064;-37
2022/11/09 06:18:26;;;;;;;18.98;2.33;;;;;;;10.67;100.00;100404.69;5036887;28;20045;-37
2022/11/09 06:20:53;;;;;;;23.73;2.85;;;;;;;10.67;100.00;100410.06;5035434;28;20017;-36
2022/11/09 06:23:19;;;;;;;18.15;3.17;;;;;;;10.67;100.00;100409.25;5037651;28;20037;-37
2022/11/09 06:25:44;;;;;;;26.30;3.45;;;;;;;10.68;100.00;100416.28;5037612;28;20529;-36
2022/11/09 06:28:09;;;;;;;9.25;2.40;;;;;;;10.73;100.00;100422.75;5050568;28;20378;-37
2022/11/09 06:30:35;;;;;;;9.63;1.92;;;;;;;10.72;100.00;100412.19;5045029;28;20029;-37
2022/11/09 06:33:01;;;;;;;20.90;2.45;;;;;;;10.72;100.00;100420.25;5040132;28;20056;-36
2022/11/09 06:35:26;;;;;;;16.58;2.28;;;;;;;10.68;100.00;100417.09;5038531;28;20037;-37
2022/11/09 06:37:59;;;;;;;22.40;3.42;;;;;;;10.68;100.00;100416.28;5046300;28;20036;-37
2022/11/09 06:40:25;;;;;;;17.88;2.47;;;;;;;10.66;100.00;100419.16;5040836;28;20113;-38
2022/11/09 06:42:51;;;;;;;23.30;2.78;;;;;;;10.67;100.00;100415.44;5035664;28;20468;-37
2022/11/09 06:45:17;;;;;;;19.73;2.70;;;;;;;10.66;100.00;100424.53;5048939;28;20116;-39
2022/11/09 06:47:43;;;;;;;23.98;3.00;;;;;;;10.67;100.00;100420.00;5044080;28;20025;-37
2022/11/09 06:50:08;;;;;;;19.92;3.65;;;;;;;10.69;100.00;100429.56;5035029;28;20026;-38
2022/11/09 06:52:34;;;;;;;25.38;3.20;;;;;;;10.68;100.00;100422.47;5038682;28;20021;-37
2022/11/09 06:54:59;;;;;;;21.48;2.30;;;;;;;10.71;100.00;100429.34;5047090;28;20037;-38
2022/11/09 06:57:24;;;;;;;15.02;2.10;;;;;;;10.74;100.00;100442.41;5049306;28;20033;-37
2022/11/09 06:59:50;;;;;;;16.98;2.65;;;;;;;10.75;100.00;100444.91;5026277;28;20142;-38
2022/11/09 07:02:19;;;;;;;30.80;3.10;;;;;;;10.74;100.00;100432.50;5045053;28;20116;-39
2022/11/09 07:04:44;;;;;;;19.23;3.47;;;;;;;10.75;100.00;100426.06;5037378;28;20025;-37
2022/11/09 07:07:10;;;;;;;19.98;2.92;;;;;;;10.78;100.00;100438.31;5043896;28;20033;-38
2022/11/09 07:09:35;;;;;;;28.23;3.10;;;;;;;10.84;100.00;100437.53;5033196;28;20037;-38
2022/11/09 07:12:02;;;;;;;16.67;2.55;;;;;;;10.88;100.00;100427.22;5046607;28;20045;-38
2022/11/09 07:14:28;;;;;;;17.90;2.97;;;;;;;10.92;100.00;100421.25;5052098;28;20288;-36
2022/11/09 07:16:53;;;;;;;20.20;2.65;;;;;;;10.96;100.00;100429.78;5047060;28;20032;-37
2022/11/09 07:19:19;;;;;;;23.80;2.78;;;;;;;10.97;100.00;100420.66;5032774;28;20060;-37
2022/11/09 07:21:44;;;;;;;16.48;2.50;;;;;;;10.99;100.00;100434.78;5050468;28;20416;-39
2022/11/09 07:24:09;;;;;;;17.25;2.85;;;;;;;10.98;100.00;100439.34;5047121;28;20037;-37
2022/11/09 07:26:34;;;;;;;24.13;3.00;;;;;;;10.97;100.00;100442.22;5039469;28;20094;-37
2022/11/09 07:29:00;;;;;;;20.33;2.70;;;;;;;10.94;100.00;100451.50;5052458;28;20033;-38
2022/11/09 07:31:28;;;;;;;16.90;2.15;;;;;;;10.95;100.00;100444.25;5043966;28;20040;-37
2022/11/09 07:33:54;;;;;;;27.55;2.95;;;;;;;10.97;100.00;100445.72;5033141;28;20462;-37
2022/11/09 07:36:19;;;;;;;17.52;2.63;;;;;;;10.98;100.00;100446.59;5036190;28;20514;-39
2022/11/09 07:38:45;;;;;;;17.08;2.50;;;;;;;11.04;100.00;100447.66;5030685;28;20063;-37
2022/11/09 07:41:10;;;;;;;19.30;2.78;;;;;;;11.11;100.00;100453.91;5032609;28;20056;-38
2022/11/09 07:43:35;;;;;;;17.55;2.60;;;;;;;11.28;100.00;100441.00;5032854;28;20519;-38
2022/11/09 07:46:03;;;;;;;21.92;2.92;;;;;;;11.41;100.00;100454.56;5032951;28;20021;-39
2022/11/09 07:48:28;;;;;;;15.05;2.45;;;;;;;11.67;100.00;100453.91;5032080;28;20021;-39
2022/11/09 07:50:56;;;;;;;20.42;3.05;;;;;;;11.80;100.00;100453.97;5033746;28;20087;-38
2022/11/09 07:53:21;;;;;;;13.93;2.43;;;;;;;12.09;100.00;100457.47;5034970;28;20230;-37
2022/11/09 07:55:57;;;;;;;17.90;3.30;;;;;;;12.22;100.00;100457.50;5034250;28;20283;-37
2022/11/09 07:58:22;;;;;;;16.70;2.45;;;;;;;12.43;100.00;100470.03;5033988;28;20026;-36
2022/11/09 08:00:48;;;;;;;26.92;3.15;;;;;;;12.72;100.00;100474.25;5031981;28;20301;-37
2022/11/09 08:03:13;;;;;;;16.23;2.70;;;;;;;12.81;100.00;100460.56;5033043;28;20081;-37
2022/11/09 08:05:39;;;;;;;14.57;2.05;;;;;;;12.92;100.00;100463.47;5033673;28;20036;-38
2022/11/09 08:08:06;;;;;;;23.45;2.85;;;;;;;12.66;100.00;100460.72;5032086;28;20025;-37
2022/11/09 08:10:33;;;;;;;15.30;2.63;;;;;;;12.65;100.00;100464.47;5033691;28;20044;-37
2022/11/09 08:13:01;;;;;;;14.68;2.55;;;;;;;12.15;100.00;100472.00;5036135;28;20053;-37
2022/11/09 08:15:27;;;;;;;15.60;2.63;;;;;;;12.08;100.00;100472.81;5033813;28;20094;-37
2022/11/09 08:17:52;;;;;;;18.23;2.47;;;;;;;11.90;100.00;100477.06;5033430;28;20463;-39
2022/11/09 08:20:18;;;;;;;18.70;2.33;;;;;;;11.76;100.00;100485.03;5034552;28;20034;-37
2022/11/09 08:22:44;;;;;;;25.92;2.72;;;;;;;11.65;100.00;100481.03;5033375;28;20040;-38
2022/11/09 08:25:10;;;;;;;20.10;3.45;;;;;;;11.46;100.00;100483.63;5034435;28;20487;-37
2022/11/09 08:27:39;;;;;;;16.70;2.65;;;;;;;11.50;100.00;100491.09;5033989;28;20025;-37
2022/11/09 08:30:05;;;;;;;;;;;;;;;11.49;100.00;100499.41;5035571;28;20060;-38
2022/11/09 08:32:30;;;;;;;22.95;3.05;;;;;;;11.59;100.00;100500.72;5034053;28;19913;-38
2022/11/09 08:34:58;;;;;;;21.85;2.20;;;;;;;11.55;100.00;100494.03;5032919;28;20455;-37
2022/11/09 08:37:24;;;;;;;19.40;2.90;;;;;;;11.49;100.00;100494.84;5033945;28;20101;-36
2022/11/09 08:39:49;;;;;;;20.73;3.15;;;;;;;11.44;100.00;100502.66;5034107;28;20515;-37
2022/11/09 08:42:14;;;;;;;19.83;3.03;;;;;;;11.46;100.00;100503.31;5032958;28;20044;-36
2022/11/09 08:44:39;;;;;;;20.65;3.38;;;;;;;11.48;100.00;100497.72;5034202;28;20041;-36
2022/11/09 08:47:05;;;;;;;16.08;2.60;;;;;;;11.51;100.00;100524.28;5032856;28;20095;-36
2022/11/09 08:49:31;;;;;;;15.93;2.17;;;;;;;11.51;100.00;100503.56;5016013;28;20033;-37
2022/11/09 08:51:56;;;;;;;15.40;2.70;;;;;;;11.55;100.00;100501.28;5034661;28;20032;-37
2022/11/09 08:54:23;;;;;;;18.45;2.58;;;;;;;11.60;100.00;100504.25;5033643;28;20048;-37
2022/11/09 08:56:48;;;;;;;22.15;2.72;;;;;;;11.63;100.00;100507.34;5033613;28;20025;-36
2022/11/09 08:59:13;;;;;;;22.13;2.85;;;;;;;11.63;100.00;100501.97;5033627;28;20357;-37
2022/11/09 09:01:38;;;;;;;21.70;2.65;;;;;;;11.63;100.00;100504.66;5035165;28;20032;-37
2022/11/09 09:04:04;;;;;;;18.48;2.88;;;;;;;11.58;100.00;100507.13;5033868;28;20093;-38
2022/11/09 09:06:29;;;;;;;15.68;2.85;;;;;;;11.64;100.00;100500.97;5031787;28;20044;-37
2022/11/09 09:08:55;;;;;;;21.15;2.75;;;;;;;11.62;100.00;100500.31;5032481;28;20061;-38
2022/11/09 09:11:21;;;;;;;19.23;3.10;;;;;;;11.67;100.00;100496.22;5039865;28;20080;-38
2022/11/09 09:13:47;;;;;;;30.60;3.63;;;;;;;11.67;100.00;100502.44;5036231;28;20120;-39
2022/11/09 09:16:14;;;;;;;22.98;3.60;;;;;;;11.69;100.00;100510.28;5026731;28;20036;-38
2022/11/09 09:18:40;;;;;;;20.73;2.88;;;;;;;11.62;100.00;100504.88;5038627;28;20194;-39
2022/11/09 09:21:07;;;;;;;23.45;3.25;;;;;;;11.65;100.00;100534.97;5045809;28;21139;-37
2022/11/09 09:23:33;;;;;;;14.77;2.40;;;;;;;11.62;100.00;100494.94;5045392;28;20048;-39
2022/11/09 09:25:58;;;;;;;18.25;2.83;;;;;;;11.65;100.00;100493.69;5046008;28;20045;-36
2022/11/09 09:28:23;;;;;;;18.83;2.70;;;;;;;11.69;100.00;100500.38;5045626;28;20505;-38
2022/11/09 09:30:48;;;;;;;19.15;2.83;;;;;;;11.69;100.00;100500.38;5044502;28;20490;-40
2022/11/09 09:33:14;;;;;;;21.70;3.05;;;;;;;11.70;100.00;100506.59;5045678;28;20555;-37
2022/11/09 09:35:39;;;;;;;18.05;2.63;;;;;;;11.77;100.00;100497.50;5046707;28;20616;-37
2022/11/09 09:38:05;;;;;;;18.13;3.45;;;;;;;11.73;100.00;100506.19;5046710;28;20037;-40
2022/11/09 09:40:35;;;;;;;17.52;3.15;;;;;;;11.76;100.00;100511.19;5043779;28;20046;-37
2022/11/09 09:43:01;;;;;;;19.80;3.42;;;;;;;11.73;100.00;100520.50;5046422;28;20104;-37
2022/11/09 09:45:33;;;;;;;23.58;3.22;;;;;;;11.75;100.00;100520.31;5045760;28;20119;-38
2022/11/09 09:48:20;;;;;;;16.55;2.47;;;;;;;11.72;100.00;100520.72;5045486;28;20573;-37
2022/11/09 09:50:51;;;;;;;22.10;3.75;;;;;;;11.71;100.00;100522.56;5043602;28;20046;-37
2022/11/09 09:53:25;;;;;;;21.13;2.88;;;;;;;11.82;100.00;100540.03;5043554;28;20101;-37
2022/11/09 09:56:05;;;;;;;14.23;3.53;;;;;;;11.82;100.00;100537.34;5044265;28;20487;-36
2022/11/09 09:58:32;;;;;;;15.73;2.60;;;;;;;11.87;100.00;100553.78;5043672;28;20041;-37
2022/11/09 10:01:09;;;;;;;12.77;2.17;;;;;;;11.86;100.00;100549.44;5045136;28;20079;-37
2022/11/09 10:03:35;;;;;;;22.33;3.03;;;;;;;11.83;100.00;100550.63;5043534;28;21898;-37
2022/11/09 10:06:14;;;;;;;26.13;3.40;;;;;;;11.86;100.00;100554.84;5046608;28;20491;-37
2022/11/09 10:08:51;;;;;;;21.77;3.30;;;;;;;11.82;100.00;100575.94;5028579;28;20043;-37
2022/11/09 10:11:52;;;;;;;16.08;2.67;;;;;;;11.64;100.00;100568.34;5027914;28;20087;-36
2022/11/09 10:14:27;;;;;;;32.05;3.47;;;;;;;11.58;100.00;100577.19;5046713;28;20040;-35
2022/11/09 10:17:18;;;;;;;14.95;2.80;;;;;;;11.45;100.00;100562.78;5045705;28;20055;-36
2022/11/09 10:19:57;;;;;;;21.80;2.55;;;;;;;11.40;100.00;100575.00;5045942;28;20037;-37
2022/11/09 10:22:43;;;;;;;19.75;3.22;;;;;;;11.41;100.00;100578.53;5045139;28;20090;-37
2022/11/09 10:25:14;;;;;;;16.55;2.83;;;;;;;11.44;100.00;100575.44;5044091;28;20075;-38
2022/11/09 10:27:46;;;;;;;28.67;3.13;;;;;;;11.49;100.00;100562.22;5042769;28;20029;-36
2022/11/09 10:30:16;;;;;;;23.10;2.72;;;;;;;11.61;100.00;100567.88;5044005;28;20033;-38
2022/11/09 10:32:49;;;;;;;21.58;4.18;;;;;;;11.67;100.00;100558.22;5044636;28;20040;-36
2022/11/09 10:35:19;;;;;;;16.45;2.33;;;;;;;11.73;100.00;100558.25;5043851;28;20046;-37
2022/11/09 10:37:48;;;;;;;16.40;2.60;;;;;;;11.81;100.00;100559.97;5044540;28;20024;-37
2022/11/09 10:40:36;;;;;;;15.10;2.70;;;;;;;11.75;100.00;100563.44;5046575;28;20104;-36
2022/11/09 10:43:05;;;;;;;15.15;2.63;;;;;;;11.63;100.00;100561.28;5044935;28;20449;-39
2022/11/09 10:45:36;;;;;;;13.60;2.05;;;;;;;11.69;100.00;100575.00;5042333;28;20056;-38
2022/11/09 10:48:02;;;;;;;14.23;2.95;;;;;;;11.80;100.00;100574.47;5043107;28;20376;-38
2022/11/09 10:50:47;;;;;;;21.23;3.33;;;;;;;11.79;100.00;100565.53;5046220;28;20037;-37
2022/11/09 10:53:18;;;;;;;14.15;2.45;;;;;;;11.74;100.00;100568.00;5043412;28;20032;-38
2022/11/09 10:55:56;;;;;;;13.35;1.98;;;;;;;11.84;100.00;100552.28;5044944;28;20520;-37
2022/11/09 10:58:24;;;;;;;27.38;2.60;;;;;;;11.85;100.00;100547.75;5044828;28;20587;-37
2022/11/09 11:01:08;;;;;;;;;;;;;;;11.88;100.00;100541.16;5043966;28;20037;-36
2022/11/09 11:03:35;;;;;;;13.48;2.30;;;;;;;11.84;100.00;100543.38;5045605;28;20049;-36
2022/11/09 11:06:13;;;;;;;12.85;1.95;;;;;;;11.79;100.00;100543.97;5045136;28;20045;-38
2022/11/09 11:08:41;;;;;;;14.00;1.73;;;;;;;11.79;100.00;100549.34;5041219;28;20093;-37
2022/11/09 11:11:09;;;;;;;14.30;2.35;;;;;;;11.81;100.00;100551.88;5045854;28;20083;-37
2022/11/09 11:13:35;;;;;;;9.20;1.52;;;;;;;11.84;100.00;100554.16;5045347;28;20040;-37